ZF1EJ Savannah KY current weather conditions

sailwx.info

Wind from 245

Air temperature 27.2° C

Last reported at 2017-Nov-24 23:00 UTC.
Time now 2017-Nov-25 00:10 UTC

Location: N 19°16' W 081°18'.
View on Google Maps.

See reports from other nearby stations

  
Tides and Currents Weather Stations Pressure Air Temp Water Temp Dewpoint Dewpoint Depression Visibility Wind Speed Wind Dir Waves Ship Positions
date/time (UTC)wind fromknots sea level pressurealtimeterstation pressurevisibilityair tempwater tempwave heightnotes
2017-Nov-24 23:00 245 27.2
2017-Nov-24 22:00 339 0 gusting 4 27.8
2017-Nov-24 21:00 032 1 gusting 4 27.8
2017-Nov-24 20:00 088 28.3
2017-Nov-24 19:00 342 3 gusting 6 28.3
2017-Nov-24 18:00 28.9
2017-Nov-24 16:00 011 0 gusting 6 28.3
2017-Nov-24 15:00 020 2 gusting 6 27.8
2017-Nov-24 14:00 345 3 gusting 5 26.7
2017-Nov-24 13:00 334 0 gusting 2 26.1
2017-Nov-24 12:00 347 0 gusting 1 25.0
2017-Nov-24 11:00 047 24.4
2017-Nov-24 10:00 078 1 gusting 4 24.4
2017-Nov-24 09:00 024 24.4
2017-Nov-24 08:00 125 0 gusting 1 25.0
2017-Nov-24 07:00 053 0 gusting 1 25.0
2017-Nov-24 06:00 006 1 gusting 2 25.6
2017-Nov-24 05:00 003 1 gusting 2 26.1
2017-Nov-24 04:00 056 26.1
2017-Nov-24 03:00 316 1 gusting 4 26.1
2017-Nov-24 02:00 034 2 gusting 5 26.7
2017-Nov-24 01:00 132 1 gusting 1 26.1
2017-Nov-24 00:00 059 26.7
2017-Nov-23 23:00 328 1 gusting 6 27.8
2017-Nov-23 22:00 325 3 gusting 6 27.2
2017-Nov-23 21:00 247 2 gusting 6 27.8
2017-Nov-23 20:00 274 1 gusting 6 28.3
2017-Nov-23 19:00 222 5 gusting 8 28.3
2017-Nov-23 18:00 227 4 gusting 6 28.3
2017-Nov-23 17:00 240 5 gusting 7 28.9
2017-Nov-23 16:00 192 2 gusting 6 28.9
2017-Nov-23 15:00 223 5 gusting 7 27.8
2017-Nov-23 14:00 219 6 gusting 8 27.8
2017-Nov-23 13:00 218 4 gusting 7 27.8
2017-Nov-23 12:00 209 6 gusting 8 26.1
2017-Nov-23 11:00 206 2 gusting 6 25.6
2017-Nov-23 10:00 184 1 gusting 8 25.6
2017-Nov-23 09:00 169 5 gusting 10 24.4
2017-Nov-23 08:00 154 1 gusting 5 23.3
2017-Nov-23 07:00 187 1 gusting 4 22.2
2017-Nov-23 06:00 011 0 gusting 14 21.7
2017-Nov-23 05:00 120 9 gusting 17 22.8
2017-Nov-23 04:00 179 14 gusting 17 26.1
2017-Nov-23 03:00 205 5 gusting 13 25.0
2017-Nov-23 02:00 078 10 gusting 13 24.4
2017-Nov-23 01:00 056 1 gusting 5 25.6
2017-Nov-23 00:00 073 2 gusting 6 25.6